Time;durP1;ratioP1;P1;durP2;ratioP2;P2;SDS_P1;SDS_P2;PMS_P1;PMS_P2;Temp;Humidity;BMP_temperature;BMP_pressure;BME280_temperature;BME280_humidity;BME280_pressure;Samples;Min_cycle;Max_cycle;Signal;HPM_P1;HPM_P2
2021/09/19 00:01:39;;;;;;;8.70;5.57;;;14.20;99.90;;;;;;5072742;28;20557;-58
2021/09/19 00:04:06;;;;;;;7.70;5.50;;;14.20;99.90;;;;;;5072625;28;20291;-58
2021/09/19 00:06:33;;;;;;;5.33;4.83;;;14.20;99.90;;;;;;5072847;28;20205;-59
2021/09/19 00:09:00;;;;;;;6.10;5.47;;;14.20;99.90;;;;;;5072526;28;20232;-58
2021/09/19 00:11:26;;;;;;;7.30;6.37;;;14.20;99.90;;;;;;5072883;28;20205;-58
2021/09/19 00:13:53;;;;;;;7.80;5.53;;;14.20;99.90;;;;;;5072635;28;20205;-59
2021/09/19 00:16:21;;;;;;;6.53;5.77;;;14.20;99.90;;;;;;5072754;28;20216;-58
2021/09/19 00:18:48;;;;;;;5.87;5.27;;;14.20;99.90;;;;;;5072289;28;20233;-58
2021/09/19 00:21:15;;;;;;;6.43;5.83;;;14.20;99.90;;;;;;5072571;28;20225;-58
2021/09/19 00:23:42;;;;;;;7.13;6.43;;;14.20;99.90;;;;;;5072210;28;20272;-58
2021/09/19 00:26:08;;;;;;;6.87;6.00;;;14.10;99.90;;;;;;5072529;28;20216;-58
2021/09/19 00:28:35;;;;;;;6.47;5.63;;;14.20;99.90;;;;;;5072178;28;20224;-58
2021/09/19 00:31:02;;;;;;;7.23;5.93;;;14.10;99.90;;;;;;5072128;28;20447;-59
2021/09/19 00:33:30;;;;;;;6.80;6.00;;;14.10;99.90;;;;;;5071908;28;20215;-58
2021/09/19 00:35:56;;;;;;;7.00;5.63;;;14.10;99.90;;;;;;5072271;28;20204;-58
2021/09/19 00:38:23;;;;;;;7.00;6.00;;;14.10;99.90;;;;;;5071947;28;20225;-58
2021/09/19 00:40:50;;;;;;;8.00;6.90;;;14.10;99.90;;;;;;5071984;28;20232;-59
2021/09/19 00:43:16;;;;;;;7.03;6.43;;;14.10;99.90;;;;;;5071935;28;20205;-59
2021/09/19 00:45:43;;;;;;;7.77;5.90;;;14.10;99.90;;;;;;5071800;28;20274;-58
2021/09/19 00:48:10;;;;;;;6.47;5.70;;;14.10;99.90;;;;;;5071908;28;20289;-60
2021/09/19 00:50:38;;;;;;;8.40;5.87;;;14.00;99.90;;;;;;5071778;28;20201;-60
2021/09/19 00:53:06;;;;;;;6.87;6.17;;;14.00;99.90;;;;;;5071822;28;20221;-60
2021/09/19 00:55:32;;;;;;;8.40;6.27;;;13.90;99.90;;;;;;5071562;28;20217;-60
2021/09/19 00:58:00;;;;;;;6.33;5.70;;;14.00;99.90;;;;;;5071452;28;20708;-60
2021/09/19 01:00:30;;;;;;;6.10;5.50;;;14.00;99.90;;;;;;5071515;28;20217;-61
2021/09/19 01:02:57;;;;;;;7.63;6.00;;;14.00;99.90;;;;;;5072128;28;20254;-60
2021/09/19 01:05:24;;;;;;;6.50;5.90;;;13.90;99.90;;;;;;5071411;28;20669;-63
2021/09/19 01:07:52;;;;;;;7.80;5.63;;;13.90;99.90;;;;;;5071522;28;20229;-62
2021/09/19 01:10:22;;;;;;;7.20;6.50;;;13.90;99.90;;;;;;5071553;28;20200;-60
2021/09/19 01:12:51;;;;;;;6.60;6.00;;;13.90;99.90;;;;;;5071307;28;20258;-59
2021/09/19 01:15:19;;;;;;;7.33;6.53;;;13.90;99.90;;;;;;5071571;28;20205;-61
2021/09/19 01:17:46;;;;;;;6.50;5.90;;;13.90;99.90;;;;;;5071374;28;20236;-59
2021/09/19 01:20:14;;;;;;;7.37;5.80;;;13.90;99.90;;;;;;5071620;28;20220;-59
2021/09/19 01:22:43;;;;;;;7.40;6.57;;;13.80;99.90;;;;;;5071909;28;20263;-59
2021/09/19 01:25:14;;;;;;;6.97;6.27;;;13.70;99.90;;;;;;5071205;28;20278;-59
2021/09/19 01:27:42;;;;;;;8.20;5.97;;;13.70;99.90;;;;;;5071643;28;20221;-59
2021/09/19 01:30:11;;;;;;;6.77;6.07;;;13.60;99.90;;;;;;5071799;28;20556;-59
2021/09/19 01:32:40;;;;;;;8.13;5.90;;;13.60;99.90;;;;;;5071512;28;20212;-59
2021/09/19 01:35:08;;;;;;;6.80;6.07;;;13.60;99.90;;;;;;5071271;28;20645;-58
2021/09/19 01:37:35;;;;;;;6.10;5.50;;;13.50;99.90;;;;;;5071213;28;20248;-59
2021/09/19 01:40:02;;;;;;;5.97;5.47;;;13.50;99.90;;;;;;5070984;28;20723;-59
2021/09/19 01:42:30;;;;;;;6.33;5.53;;;13.40;99.90;;;;;;5070950;28;20844;-59
2021/09/19 01:44:56;;;;;;;6.97;5.30;;;13.30;99.90;;;;;;5071106;28;20724;-59
2021/09/19 01:47:23;;;;;;;6.53;5.43;;;13.30;99.90;;;;;;5070985;28;20625;-59
2021/09/19 01:49:51;;;;;;;5.60;5.10;;;13.20;99.90;;;;;;5070903;28;20258;-59
2021/09/19 01:52:19;;;;;;;6.30;5.70;;;13.20;99.90;;;;;;5070890;28;20205;-59
2021/09/19 01:54:46;;;;;;;6.50;5.90;;;13.20;99.90;;;;;;5070577;28;20229;-60
2021/09/19 01:57:17;;;;;;;6.87;6.17;;;13.10;99.90;;;;;;5070917;28;20278;-59
2021/09/19 01:59:46;;;;;;;7.73;6.30;;;13.10;99.90;;;;;;5070783;28;20585;-59
2021/09/19 02:02:12;;;;;;;8.30;5.97;;;13.10;99.90;;;;;;5070780;28;20208;-59
2021/09/19 02:04:40;;;;;;;8.33;6.40;;;13.10;99.90;;;;;;5070594;28;20234;-59
2021/09/19 02:07:07;;;;;;;7.80;6.30;;;13.00;99.90;;;;;;5070424;28;20239;-59
2021/09/19 02:09:34;;;;;;;6.70;6.10;;;12.90;99.90;;;;;;5070692;28;20624;-59
2021/09/19 02:12:01;;;;;;;6.60;6.00;;;12.90;99.90;;;;;;5070832;28;20217;-60
2021/09/19 02:14:28;;;;;;;6.83;6.07;;;12.80;99.90;;;;;;5070664;28;20270;-62
2021/09/19 02:16:56;;;;;;;6.97;6.30;;;12.80;99.90;;;;;;5070678;28;20204;-60
2021/09/19 02:19:22;;;;;;;7.80;5.87;;;12.80;99.90;;;;;;5070552;28;20201;-60
2021/09/19 02:21:49;;;;;;;7.53;6.20;;;12.70;99.90;;;;;;5070518;28;20294;-60
2021/09/19 02:24:16;;;;;;;7.67;5.90;;;12.70;99.90;;;;;;5070706;28;20205;-60
2021/09/19 02:26:42;;;;;;;6.90;5.73;;;12.70;99.90;;;;;;5070797;28;20696;-60
2021/09/19 02:29:09;;;;;;;7.50;6.37;;;12.60;99.90;;;;;;5070535;28;20628;-60
2021/09/19 02:31:36;;;;;;;6.20;5.60;;;12.60;99.90;;;;;;5070735;28;20612;-60
2021/09/19 02:34:04;;;;;;;6.60;5.87;;;12.70;99.90;;;;;;5070485;28;20255;-60
2021/09/19 02:36:31;;;;;;;7.37;6.00;;;12.60;99.90;;;;;;5070820;28;20266;-60
2021/09/19 02:38:57;;;;;;;11.97;6.60;;;12.60;99.90;;;;;;5073111;28;20346;-60
2021/09/19 02:41:25;;;;;;;7.37;6.60;;;12.60;99.90;;;;;;5074239;28;20232;-59
2021/09/19 02:43:52;;;;;;;7.87;6.53;;;12.60;99.90;;;;;;5074118;28;20212;-59
2021/09/19 02:46:19;;;;;;;7.73;6.93;;;12.50;99.90;;;;;;5074152;28;20602;-60
2021/09/19 02:48:45;;;;;;;7.47;6.67;;;12.50;99.90;;;;;;5073883;28;20270;-60
2021/09/19 02:51:13;;;;;;;8.13;6.57;;;12.40;99.90;;;;;;5074169;28;20594;-60
2021/09/19 02:53:40;;;;;;;6.80;6.10;;;12.40;99.90;;;;;;5074017;28;20628;-60
2021/09/19 02:56:07;;;;;;;8.20;6.90;;;12.30;99.90;;;;;;5073973;28;20604;-60
2021/09/19 02:58:34;;;;;;;8.33;7.53;;;12.30;99.90;;;;;;5073899;28;20294;-60
2021/09/19 03:01:01;;;;;;;8.03;7.23;;;12.30;99.90;;;;;;5074321;28;20228;-59
2021/09/19 03:03:28;;;;;;;9.83;7.30;;;12.30;99.90;;;;;;5073621;28;20743;-60
2021/09/19 03:05:55;;;;;;;8.70;7.43;;;12.30;99.90;;;;;;5073690;28;20695;-60
2021/09/19 03:08:23;;;;;;;8.97;6.90;;;12.20;99.90;;;;;;5073560;28;20692;-59
2021/09/19 03:10:50;;;;;;;7.77;6.93;;;12.20;99.90;;;;;;5073826;28;20585;-60
2021/09/19 03:13:17;;;;;;;7.10;6.40;;;12.20;99.90;;;;;;5073775;28;20239;-60
2021/09/19 03:15:44;;;;;;;7.60;6.90;;;12.20;99.90;;;;;;5073925;28;20209;-60
2021/09/19 03:18:11;;;;;;;7.17;6.47;;;12.10;99.90;;;;;;5073938;28;20232;-59
2021/09/19 03:20:38;;;;;;;7.73;6.50;;;12.10;99.90;;;;;;5073649;28;20225;-60
2021/09/19 03:23:04;;;;;;;7.13;6.40;;;12.10;99.90;;;;;;5073609;28;20209;-60
2021/09/19 03:25:32;;;;;;;7.97;6.20;;;12.10;99.90;;;;;;5073446;28;20216;-60
2021/09/19 03:27:59;;;;;;;6.77;6.10;;;12.00;99.90;;;;;;5073358;28;20221;-60
2021/09/19 03:30:26;;;;;;;7.77;6.00;;;12.00;99.90;;;;;;5073323;28;20201;-60
2021/09/19 03:32:53;;;;;;;7.07;6.37;;;12.00;99.90;;;;;;5073558;28;20706;-60
2021/09/19 03:35:19;;;;;;;9.53;6.50;;;12.00;99.90;;;;;;5073580;28;20209;-60
2021/09/19 03:37:46;;;;;;;7.30;6.60;;;12.00;99.90;;;;;;5073240;28;20229;-60
2021/09/19 03:40:14;;;;;;;7.37;6.67;;;12.00;99.90;;;;;;5073146;28;20215;-59
2021/09/19 03:42:42;;;;;;;8.27;6.80;;;12.00;99.90;;;;;;5073095;28;20716;-60
2021/09/19 03:45:10;;;;;;;7.07;6.37;;;12.00;99.90;;;;;;5072915;28;20209;-60
2021/09/19 03:47:37;;;;;;;7.63;6.87;;;11.90;99.90;;;;;;5073216;28;20233;-60
2021/09/19 03:50:05;;;;;;;7.07;6.37;;;11.90;99.90;;;;;;5072695;28;20212;-60
2021/09/19 03:52:31;;;;;;;7.17;6.40;;;11.80;99.90;;;;;;5073098;28;20209;-60
2021/09/19 03:54:58;;;;;;;8.17;6.40;;;11.80;99.90;;;;;;5072720;28;20231;-59
2021/09/19 03:57:25;;;;;;;7.93;6.87;;;11.80;99.90;;;;;;5072822;28;20251;-60
2021/09/19 03:59:53;;;;;;;7.37;6.60;;;11.70;99.90;;;;;;5072912;28;20266;-60
2021/09/19 04:02:19;;;;;;;6.77;5.90;;;11.70;99.90;;;;;;5072861;28;20225;-60
2021/09/19 04:04:46;;;;;;;10.70;6.73;;;11.70;99.90;;;;;;5072752;28;20205;-60
2021/09/19 04:07:13;;;;;;;7.00;6.27;;;11.70;99.90;;;;;;5073247;28;20724;-57
2021/09/19 04:09:39;;;;;;;7.00;6.30;;;11.60;99.90;;;;;;5072828;28;20209;-58
2021/09/19 04:12:06;;;;;;;8.93;6.17;;;11.60;99.90;;;;;;5072580;28;20207;-57
2021/09/19 04:14:33;;;;;;;6.93;6.20;;;11.50;99.90;;;;;;5072605;28;20213;-57
2021/09/19 04:17:01;;;;;;;6.20;5.60;;;11.50;99.90;;;;;;5072479;28;20209;-58
2021/09/19 04:19:27;;;;;;;7.17;6.30;;;11.50;99.90;;;;;;5072315;28;20208;-59
2021/09/19 04:21:54;;;;;;;7.23;6.40;;;11.40;99.90;;;;;;5072853;28;20225;-58
2021/09/19 04:24:21;;;;;;;6.97;6.03;;;11.40;99.90;;;;;;5072139;28;20208;-58
2021/09/19 04:26:47;;;;;;;6.73;6.13;;;11.40;99.90;;;;;;5072072;28;20212;-59
2021/09/19 04:29:14;;;;;;;6.30;5.70;;;11.40;99.90;;;;;;5072020;28;20580;-58
2021/09/19 04:31:41;;;;;;;6.57;5.83;;;11.30;99.90;;;;;;5072296;28;20567;-58
2021/09/19 04:34:09;;;;;;;7.63;6.23;;;11.30;99.90;;;;;;5072049;28;20395;-58
2021/09/19 04:36:36;;;;;;;8.77;5.97;;;11.30;99.90;;;;;;5072143;28;20200;-58
2021/09/19 04:39:03;;;;;;;6.93;6.23;;;11.30;99.90;;;;;;5071854;28;20236;-57
2021/09/19 04:41:30;;;;;;;16.53;10.90;;;11.30;99.90;;;;;;5072104;28;20229;-59
2021/09/19 04:43:57;;;;;;;16.27;10.70;;;11.30;99.90;;;;;;5072184;28;20204;-57
2021/09/19 04:46:23;;;;;;;25.30;16.40;;;11.30;99.90;;;;;;5072070;28;20473;-57
2021/09/19 04:48:54;;;;;;;22.03;14.50;;;11.30;99.90;;;;;;5071667;28;20240;-59
2021/09/19 04:51:22;;;;;;;19.40;12.73;;;11.30;99.90;;;;;;5071857;28;20204;-59
2021/09/19 04:53:48;;;;;;;16.57;11.60;;;11.30;99.90;;;;;;5071452;28;20262;-58
2021/09/19 04:56:15;;;;;;;11.73;7.97;;;11.30;99.90;;;;;;5071703;28;20212;-58
2021/09/19 04:58:42;;;;;;;7.17;6.47;;;11.30;99.90;;;;;;5071588;28;20286;-59
2021/09/19 05:01:09;;;;;;;9.10;6.97;;;11.30;99.90;;;;;;5071343;28;20273;-57
2021/09/19 05:03:35;;;;;;;8.93;6.27;;;11.30;99.90;;;;;;5071550;28;20201;-59
2021/09/19 05:06:02;;;;;;;8.43;7.10;;;11.30;99.90;;;;;;5072197;28;20249;-58
2021/09/19 05:08:30;;;;;;;8.63;7.17;;;11.30;99.90;;;;;;5071737;28;20235;-58
2021/09/19 05:10:57;;;;;;;9.77;8.50;;;11.30;99.90;;;;;;5072070;28;20246;-59
2021/09/19 05:13:23;;;;;;;7.67;6.87;;;11.30;99.90;;;;;;5071597;28;20258;-58
2021/09/19 05:15:50;;;;;;;8.53;7.63;;;11.30;99.90;;;;;;5071618;28;20212;-58
2021/09/19 05:18:17;;;;;;;17.97;11.63;;;11.40;99.90;;;;;;5071079;28;20717;-59
2021/09/19 05:20:44;;;;;;;21.17;12.77;;;11.40;99.90;;;;;;5071146;28;20213;-58
2021/09/19 05:23:10;;;;;;;17.23;11.10;;;11.40;99.90;;;;;;5071887;28;20213;-58
2021/09/19 05:25:39;;;;;;;10.97;8.10;;;11.40;99.90;;;;;;5071210;28;20205;-58
2021/09/19 05:28:05;;;;;;;8.60;7.67;;;11.40;99.90;;;;;;5071178;28;20240;-59
2021/09/19 05:30:32;;;;;;;7.63;6.80;;;11.40;99.90;;;;;;5071073;28;20699;-58
2021/09/19 05:32:59;;;;;;;11.10;6.80;;;11.40;99.90;;;;;;5071167;28;20201;-57
2021/09/19 05:35:26;;;;;;;8.33;6.67;;;11.40;99.90;;;;;;5071460;28;20205;-57
2021/09/19 05:37:53;;;;;;;6.80;6.10;;;11.40;99.90;;;;;;5071295;28;20778;-57
2021/09/19 05:40:19;;;;;;;5.73;5.13;;;11.40;99.90;;;;;;5071120;28;20208;-57
2021/09/19 05:42:47;;;;;;;6.80;6.20;;;11.40;99.90;;;;;;5071002;28;20914;-57
2021/09/19 05:45:15;;;;;;;6.43;5.73;;;11.40;99.90;;;;;;5071069;28;20205;-58
2021/09/19 05:47:42;;;;;;;6.53;5.70;;;11.50;99.90;;;;;;5070798;28;20236;-58
2021/09/19 05:50:09;;;;;;;6.90;5.23;;;11.50;99.90;;;;;;5071100;28;20246;-59
2021/09/19 05:52:36;;;;;;;6.80;5.77;;;11.60;99.90;;;;;;5071159;28;20251;-58
2021/09/19 05:55:02;;;;;;;6.83;5.50;;;11.60;99.90;;;;;;5070779;28;20537;-60
2021/09/19 05:57:29;;;;;;;7.70;6.33;;;11.70;99.90;;;;;;5070959;28;20229;-60
2021/09/19 05:59:59;;;;;;;6.27;5.67;;;11.70;99.90;;;;;;5070688;28;20212;-60
2021/09/19 06:02:25;;;;;;;7.20;5.87;;;11.80;99.90;;;;;;5070570;28;20229;-59
2021/09/19 06:04:52;;;;;;;7.00;5.37;;;11.90;99.90;;;;;;5070915;28;20209;-60
2021/09/19 06:07:19;;;;;;;5.90;5.37;;;12.00;99.90;;;;;;5070685;28;20225;-60
2021/09/19 06:09:45;;;;;;;5.70;4.77;;;12.20;99.90;;;;;;5070731;28;20254;-60
2021/09/19 06:12:12;;;;;;;6.70;4.60;;;12.80;99.90;;;;;;5072427;28;20278;-60
2021/09/19 06:14:39;;;;;;;5.00;4.50;;;13.90;99.90;;;;;;5075083;28;20211;-60
2021/09/19 06:17:07;;;;;;;6.80;4.53;;;15.30;99.90;;;;;;5074801;28;20231;-60
2021/09/19 06:19:34;;;;;;;4.30;3.90;;;16.50;99.90;;;;;;5074755;28;20211;-60
2021/09/19 06:22:01;;;;;;;3.60;3.20;;;17.60;99.90;;;;;;5074811;28;20228;-60
2021/09/19 06:24:29;;;;;;;5.00;4.60;;;18.70;99.90;;;;;;5074585;28;20205;-60
2021/09/19 06:26:56;;;;;;;5.47;4.65;;;19.80;99.90;;;;;;5074436;28;20299;-60
2021/09/19 06:29:23;;;;;;;5.15;4.40;;;20.70;99.90;;;;;;5074344;28;20208;-60
2021/09/19 06:31:49;;;;;;;6.72;5.72;;;21.30;99.90;;;;;;5074501;28;20827;-60
2021/09/19 06:34:18;;;;;;;5.95;4.82;;;21.90;99.90;;;;;;5074551;28;20204;-60
2021/09/19 06:36:44;;;;;;;5.97;3.70;;;22.40;99.90;;;;;;5074541;28;20209;-61
2021/09/19 06:39:11;;;;;;;4.40;4.00;;;23.00;99.90;;;;;;5074405;28;20216;-61
2021/09/19 06:41:38;;;;;;;5.50;3.50;;;23.50;99.90;;;;;;5074217;28;20725;-60
2021/09/19 06:44:05;;;;;;;5.88;4.85;;;24.10;99.90;;;;;;5074136;28;20201;-60
2021/09/19 06:46:33;;;;;;;2.80;2.60;;;24.70;99.90;;;;;;5074140;28;20742;-60
2021/09/19 06:49:00;;;;;;;2.85;2.65;;;24.90;99.90;;;;;;5074101;28;20231;-65
2021/09/19 06:51:28;;;;;;;3.55;3.25;;;25.40;99.90;;;;;;5074345;28;20205;-63
2021/09/19 06:53:55;;;;;;;6.15;5.53;;;25.90;99.70;;;;;;5074095;28;20747;-63
2021/09/19 06:56:22;;;;;;;3.75;2.70;;;26.30;98.00;;;;;;5073820;28;20684;-60
2021/09/19 06:58:49;;;;;;;2.90;2.60;;;26.50;97.10;;;;;;5073854;28;20221;-60
2021/09/19 07:01:16;;;;;;;2.55;2.35;;;27.00;95.90;;;;;;5073775;28;20681;-60
2021/09/19 07:03:43;;;;;;;2.38;2.17;;;27.40;93.80;;;;;;5073922;28;20232;-60
2021/09/19 07:06:10;;;;;;;4.90;4.40;;;27.80;92.50;;;;;;5073937;28;20286;-60
2021/09/19 07:08:38;;;;;;;43.25;38.72;;;28.10;91.70;;;;;;5073696;28;20248;-65
2021/09/19 07:11:05;;;;;;;4.30;3.90;;;28.40;90.40;;;;;;5073815;28;20727;-59
2021/09/19 07:13:31;;;;;;;2.63;2.42;;;28.80;89.70;;;;;;5073444;28;20208;-60
2021/09/19 07:15:58;;;;;;;2.20;2.00;;;29.00;87.50;;;;;;5073719;28;20232;-59
2021/09/19 07:18:25;;;;;;;3.08;2.42;;;29.30;84.40;;;;;;5073473;28;20279;-58
2021/09/19 07:20:53;;;;;;;3.35;2.05;;;29.60;83.80;;;;;;5073714;28;20208;-60
2021/09/19 07:23:20;;;;;;;3.50;2.30;;;29.60;82.20;;;;;;5072951;28;20224;-60
2021/09/19 07:25:49;;;;;;;2.35;2.08;;;29.60;80.60;;;;;;5073401;28;20255;-60
2021/09/19 07:28:16;;;;;;;2.42;2.15;;;29.70;80.10;;;;;;5073310;28;20719;-60
2021/09/19 07:30:43;;;;;;;4.22;3.35;;;29.90;78.00;;;;;;5073360;28;20590;-59
2021/09/19 07:33:10;;;;;;;2.20;2.00;;;30.10;78.20;;;;;;5073475;28;20669;-60
2021/09/19 07:35:36;;;;;;;3.25;2.92;;;30.40;76.60;;;;;;5073294;28;20282;-60
2021/09/19 07:38:04;;;;;;;2.33;2.10;;;30.70;75.60;;;;;;5073099;28;20229;-60
2021/09/19 07:40:31;;;;;;;1.80;1.70;;;30.80;74.10;;;;;;5073290;28;20301;-60
2021/09/19 07:43:00;;;;;;;2.70;2.45;;;30.70;73.20;;;;;;5073316;28;20232;-60
2021/09/19 07:45:27;;;;;;;2.47;1.92;;;30.60;73.40;;;;;;5073575;28;20684;-59
2021/09/19 07:47:54;;;;;;;3.10;2.28;;;30.20;73.30;;;;;;5073562;28;20252;-60
2021/09/19 07:50:22;;;;;;;2.40;2.20;;;29.20;75.20;;;;;;5073493;28;20200;-60
2021/09/19 07:52:49;;;;;;;2.90;2.00;;;27.80;78.60;;;;;;5073282;28;20665;-60
2021/09/19 07:55:15;;;;;;;2.80;2.10;;;26.40;83.20;;;;;;5073064;28;20220;-58
2021/09/19 07:57:43;;;;;;;4.45;2.20;;;24.80;87.60;;;;;;5073049;28;20256;-59
2021/09/19 08:00:12;;;;;;;2.97;2.28;;;23.70;91.00;;;;;;5072748;28;20616;-59
2021/09/19 08:02:39;;;;;;;3.13;2.60;;;22.70;92.90;;;;;;5072750;28;20696;-59
2021/09/19 08:05:07;;;;;;;2.50;2.30;;;21.90;95.00;;;;;;5072757;28;20208;-59
2021/09/19 08:07:33;;;;;;;2.55;2.28;;;21.30;96.50;;;;;;5072705;28;20224;-58
2021/09/19 08:10:00;;;;;;;2.55;2.08;;;20.90;98.20;;;;;;5072976;28;20231;-61
2021/09/19 08:12:27;;;;;;;2.50;2.30;;;20.50;99.70;;;;;;5072651;28;20687;-59
2021/09/19 08:14:53;;;;;;;2.83;2.47;;;20.20;99.90;;;;;;5072367;28;20687;-60
2021/09/19 08:17:21;;;;;;;2.55;2.35;;;20.00;99.90;;;;;;5072458;28;20716;-59
2021/09/19 08:19:48;;;;;;;2.67;2.17;;;19.80;99.90;;;;;;5073018;28;20599;-60
2021/09/19 08:22:15;;;;;;;3.67;2.67;;;19.70;99.90;;;;;;5072290;28;20229;-59
2021/09/19 08:24:41;;;;;;;3.38;2.78;;;19.60;99.90;;;;;;5072555;28;20213;-59
2021/09/19 08:27:08;;;;;;;4.35;3.92;;;19.60;99.90;;;;;;5072814;28;20275;-59
2021/09/19 08:29:35;;;;;;;7.22;6.07;;;19.50;99.90;;;;;;5072216;28;20209;-60
2021/09/19 08:32:03;;;;;;;5.90;2.83;;;19.60;99.90;;;;;;5072720;28;20223;-59
2021/09/19 08:34:31;;;;;;;3.53;2.45;;;19.60;99.90;;;;;;5071965;28;20231;-58
2021/09/19 08:36:58;;;;;;;3.13;2.83;;;19.60;99.90;;;;;;5070743;28;20587;-59
2021/09/19 08:39:25;;;;;;;2.97;2.53;;;19.50;99.90;;;;;;5071588;28;20211;-59
2021/09/19 08:41:52;;;;;;;2.75;2.55;;;19.10;99.90;;;;;;5071897;28;20205;-58
2021/09/19 08:44:19;;;;;;;3.30;2.90;;;19.00;99.90;;;;;;5072108;28;20247;-59
2021/09/19 08:46:47;;;;;;;5.05;2.92;;;19.00;99.90;;;;;;5071880;28;20262;-59
2021/09/19 08:49:16;;;;;;;4.18;2.78;;;18.90;99.90;;;;;;5071875;28;20204;-59
2021/09/19 08:51:44;;;;;;;2.92;2.60;;;18.70;99.90;;;;;;5072431;28;20216;-59
2021/09/19 08:54:11;;;;;;;3.13;2.83;;;18.70;99.90;;;;;;5072123;28;20618;-59
2021/09/19 08:56:38;;;;;;;2.97;2.78;;;18.80;99.90;;;;;;5071783;28;20723;-59
2021/09/19 08:59:05;;;;;;;3.17;2.88;;;18.70;99.90;;;;;;5071492;28;20232;-59
2021/09/19 09:01:31;;;;;;;2.80;2.60;;;18.70;99.90;;;;;;5071710;28;20201;-58
2021/09/19 09:04:04;;;;;;;3.45;2.85;;;18.70;99.90;;;;;;5071308;28;20231;-59
2021/09/19 09:06:36;;;;;;;3.08;2.78;;;18.60;99.90;;;;;;5071712;28;20232;-59
2021/09/19 09:09:13;;;;;;;2.85;2.60;;;18.70;99.90;;;;;;5071430;28;20228;-61
2021/09/19 09:11:40;;;;;;;3.65;2.55;;;18.80;99.90;;;;;;5071430;28;20278;-59
2021/09/19 09:14:07;;;;;;;3.22;2.67;;;19.10;99.90;;;;;;5071175;28;20285;-58
2021/09/19 09:16:33;;;;;;;3.08;2.58;;;19.10;99.90;;;;;;5071457;28;20265;-59
2021/09/19 09:19:00;;;;;;;2.75;2.50;;;19.10;99.90;;;;;;5068779;28;20282;-64
2021/09/19 09:21:29;;;;;;;5.57;2.95;;;19.00;99.90;;;;;;5071338;28;20219;-59
2021/09/19 09:23:58;;;;;;;4.18;2.80;;;19.00;99.90;;;;;;5070878;28;20260;-62
2021/09/19 09:26:27;;;;;;;3.60;2.90;;;19.10;99.90;;;;;;5071253;28;20209;-62
2021/09/19 09:28:58;;;;;;;6.05;2.70;;;19.30;99.90;;;;;;5070774;28;20307;-63
2021/09/19 09:31:33;;;;;;;2.80;2.60;;;19.30;99.90;;;;;;5070969;28;20673;-62
2021/09/19 09:34:07;;;;;;;4.43;2.92;;;19.30;99.90;;;;;;5071201;28;20205;-63
2021/09/19 09:36:40;;;;;;;3.13;2.83;;;19.40;99.90;;;;;;5071336;28;20209;-63
2021/09/19 09:39:30;;;;;;;2.55;2.30;;;19.60;99.90;;;;;;5071427;28;20209;-59
2021/09/19 09:42:03;;;;;;;2.95;2.70;;;19.80;99.90;;;;;;5071255;28;20223;-60
2021/09/19 09:44:48;;;;;;;2.63;2.42;;;19.70;99.90;;;;;;5071048;28;20233;-60
2021/09/19 09:47:17;;;;;;;3.47;2.55;;;19.90;99.90;;;;;;5070543;28;20228;-60
2021/09/19 09:49:48;;;;;;;3.08;2.67;;;20.10;99.90;;;;;;5071365;28;20262;-60
2021/09/19 09:52:20;;;;;;;4.15;2.70;;;20.20;99.90;;;;;;5070909;28;20617;-60
2021/09/19 09:54:49;;;;;;;2.63;2.40;;;20.30;99.90;;;;;;5070769;28;20229;-60
2021/09/19 09:57:35;;;;;;;2.97;2.70;;;20.20;99.90;;;;;;5070919;28;20231;-60
2021/09/19 10:00:03;;;;;;;3.80;2.60;;;20.50;99.90;;;;;;5070617;28;20624;-60
2021/09/19 10:02:31;;;;;;;3.15;2.40;;;20.70;99.90;;;;;;5071238;28;20217;-60
2021/09/19 10:04:57;;;;;;;4.80;2.50;;;20.90;99.90;;;;;;5070900;28;20589;-60
2021/09/19 10:07:24;;;;;;;3.38;2.53;;;21.10;99.90;;;;;;5089562;22;20448;-65
2021/09/19 10:09:51;;;;;;;2.78;2.58;;;21.20;99.90;;;;;;5031332;28;20206;-64
2021/09/19 10:12:20;;;;;;;3.42;2.00;;;21.20;99.90;;;;;;5030887;28;20207;-64
2021/09/19 10:14:50;;;;;;;3.85;2.70;;;21.20;99.90;;;;;;5030456;28;20210;-64
2021/09/19 10:17:17;;;;;;;2.80;2.60;;;21.10;99.90;;;;;;5030862;28;20276;-64
2021/09/19 10:19:44;;;;;;;5.07;2.78;;;20.90;99.90;;;;;;5030969;28;20256;-64
2021/09/19 10:22:14;;;;;;;4.18;2.42;;;20.70;99.90;;;;;;5030362;28;20206;-65
2021/09/19 10:24:41;;;;;;;5.82;2.80;;;20.80;99.90;;;;;;5030676;28;20217;-64
2021/09/19 10:27:22;;;;;;;3.30;2.80;;;20.70;99.90;;;;;;5031146;28;20210;-65
2021/09/19 10:29:57;;;;;;;3.35;3.05;;;20.60;99.90;;;;;;5030530;28;20221;-63
2021/09/19 10:32:38;;;;;;;4.35;2.70;;;20.60;99.90;;;;;;5030678;28;20414;-63
2021/09/19 10:35:28;;;;;;;3.05;2.75;;;20.50;99.90;;;;;;5030730;28;20206;-64
2021/09/19 10:38:03;;;;;;;3.17;2.88;;;20.60;99.90;;;;;;5031030;28;20599;-65
2021/09/19 10:40:32;;;;;;;3.13;2.80;;;20.80;99.90;;;;;;5030697;28;20229;-64
2021/09/19 10:42:59;;;;;;;2.65;2.45;;;21.10;99.90;;;;;;5030351;28;20222;-64
2021/09/19 10:45:38;;;;;;;3.33;3.03;;;21.30;99.90;;;;;;5031123;28;20225;-65
2021/09/19 10:48:12;;;;;;;3.10;2.70;;;21.50;99.90;;;;;;5030936;28;20229;-65
2021/09/19 10:50:39;;;;;;;3.45;3.15;;;21.60;99.90;;;;;;5031145;28;20206;-66
2021/09/19 10:53:18;;;;;;;4.38;2.70;;;21.40;99.90;;;;;;5031233;28;20199;-64
2021/09/19 10:55:52;;;;;;;3.15;2.65;;;21.40;99.90;;;;;;5030969;28;20206;-64
2021/09/19 10:58:25;;;;;;;3.47;3.10;;;21.30;99.90;;;;;;5030373;28;20259;-64
2021/09/19 11:01:09;;;;;;;3.28;2.70;;;21.30;99.90;;;;;;5034118;28;20674;-64
2021/09/19 11:03:40;;;;;;;4.32;2.92;;;21.30;99.90;;;;;;5032479;28;20222;-65
2021/09/19 11:06:21;;;;;;;3.58;3.00;;;21.30;99.90;;;;;;5034113;28;20214;-65
2021/09/19 11:08:48;;;;;;;3.42;3.13;;;21.10;99.90;;;;;;5033746;28;20416;-65
2021/09/19 11:11:24;;;;;;;3.28;2.97;;;21.00;99.90;;;;;;5034295;28;20218;-64
2021/09/19 11:14:13;;;;;;;3.10;2.80;;;21.10;99.90;;;;;;5034304;28;20213;-65
2021/09/19 11:16:42;;;;;;;3.30;3.00;;;21.20;99.90;;;;;;5034163;28;20206;-65
2021/09/19 11:19:14;;;;;;;6.07;4.07;;;21.50;99.90;;;;;;5033655;28;20648;-63
2021/09/19 11:21:47;;;;;;;3.97;3.00;;;21.90;99.90;;;;;;5033635;28;20678;-65
2021/09/19 11:24:16;;;;;;;3.35;3.05;;;22.10;99.90;;;;;;5033609;28;20231;-64
2021/09/19 11:26:46;;;;;;;2.88;2.58;;;22.30;99.90;;;;;;5033752;28;20210;-64
2021/09/19 11:29:14;;;;;;;4.95;3.60;;;22.60;99.90;;;;;;5033411;28;20234;-64
2021/09/19 11:31:44;;;;;;;3.40;3.10;;;22.70;99.90;;;;;;5033673;28;20520;-64
2021/09/19 11:34:13;;;;;;;3.30;3.00;;;22.80;99.90;;;;;;5033540;28;20206;-64
2021/09/19 11:36:42;;;;;;;3.88;3.13;;;22.90;99.90;;;;;;5033557;28;20206;-64
2021/09/19 11:39:09;;;;;;;5.30;3.45;;;22.90;99.90;;;;;;5033327;28;20276;-64
2021/09/19 11:41:36;;;;;;;4.75;2.92;;;22.90;99.90;;;;;;5033328;28;20237;-64
2021/09/19 11:44:04;;;;;;;3.75;3.45;;;22.70;99.90;;;;;;5032898;28;20226;-64
2021/09/19 11:46:34;;;;;;;3.78;2.80;;;22.40;99.90;;;;;;5033427;28;20217;-65
2021/09/19 11:49:05;;;;;;;3.05;2.75;;;22.30;99.90;;;;;;5033352;28;20229;-65
2021/09/19 11:51:32;;;;;;;4.03;3.00;;;22.40;99.90;;;;;;5034124;28;20202;-65
2021/09/19 11:53:59;;;;;;;3.78;3.00;;;22.40;99.90;;;;;;5033211;28;20285;-64
2021/09/19 11:56:27;;;;;;;3.97;3.00;;;22.50;99.90;;;;;;5033119;28;20202;-63
2021/09/19 11:58:55;;;;;;;3.55;2.80;;;22.30;99.90;;;;;;5032887;28;20710;-63
2021/09/19 12:01:26;;;;;;;4.07;2.70;;;22.00;99.90;;;;;;5032966;28;20674;-63
2021/09/19 12:03:53;;;;;;;3.75;3.20;;;22.00;99.90;;;;;;5032892;28;20597;-64
2021/09/19 12:06:22;;;;;;;3.42;3.13;;;22.00;99.90;;;;;;5033637;28;20216;-65
2021/09/19 12:08:50;;;;;;;4.10;3.30;;;22.30;99.90;;;;;;5033913;28;20333;-63
2021/09/19 12:11:17;;;;;;;3.58;3.28;;;22.50;99.90;;;;;;5033702;28;20264;-64
2021/09/19 12:13:49;;;;;;;3.38;3.08;;;22.60;99.90;;;;;;5033295;28;20230;-64
2021/09/19 12:16:19;;;;;;;3.35;2.90;;;22.40;99.90;;;;;;5032732;28;20602;-64
2021/09/19 12:18:48;;;;;;;3.72;3.35;;;22.30;99.90;;;;;;5032700;28;20330;-64
2021/09/19 12:21:17;;;;;;;3.85;3.45;;;22.30;99.90;;;;;;5032761;28;20616;-64
2021/09/19 12:23:48;;;;;;;3.28;2.97;;;22.30;99.90;;;;;;5032412;28;20313;-63
2021/09/19 12:26:17;;;;;;;3.95;2.60;;;22.30;99.90;;;;;;5032748;28;20213;-64
2021/09/19 12:28:45;;;;;;;3.95;2.72;;;22.30;99.90;;;;;;5032407;28;20237;-64
2021/09/19 12:31:13;;;;;;;3.42;2.70;;;22.40;99.90;;;;;;5032584;28;20207;-65
2021/09/19 12:33:54;;;;;;;3.83;2.70;;;22.60;99.90;;;;;;5032394;28;20234;-64
2021/09/19 12:36:22;;;;;;;2.95;2.70;;;22.80;99.90;;;;;;5032298;28;20485;-65
2021/09/19 12:38:50;;;;;;;2.83;2.63;;;23.10;99.90;;;;;;5032249;28;20254;-64
2021/09/19 12:41:18;;;;;;;2.90;2.70;;;23.40;99.90;;;;;;5032437;28;20662;-68
2021/09/19 12:43:45;;;;;;;2.60;2.40;;;23.70;99.90;;;;;;5032869;28;20229;-65
2021/09/19 12:46:14;;;;;;;2.78;2.55;;;23.80;99.90;;;;;;5032269;28;20616;-64
2021/09/19 12:48:43;;;;;;;3.45;2.58;;;23.50;99.90;;;;;;5033374;28;20312;-64
2021/09/19 12:51:16;;;;;;;2.58;2.38;;;23.20;99.90;;;;;;5033298;28;20202;-64